createdAt,value
2018-08-18T00:04:20.322Z,97274.91
2018-08-18T00:09:14.904Z,97266.11
2018-08-18T00:14:09.449Z,97270.65
2018-08-18T00:19:04.012Z,97274.09
2018-08-18T00:24:08.208Z,97283.42
2018-08-18T00:29:02.833Z,97278.91
2018-08-18T00:33:57.547Z,97274.38
2018-08-18T00:38:52.093Z,97265.06
2018-08-18T00:43:49.032Z,97265.84
2018-08-18T00:48:43.532Z,97257.09
2018-08-18T00:53:38.037Z,97267.45
2018-08-18T00:58:32.537Z,97256.55
2018-08-18T01:03:27.073Z,97258.69
2018-08-18T01:08:22.494Z,97262.41
2018-08-18T01:13:17.091Z,97265.85
2018-08-18T01:18:12.052Z,97273.59
2018-08-18T01:23:06.624Z,97271.45
2018-08-18T01:28:01.209Z,97273.59
2018-08-18T01:32:55.708Z,97274.38
2018-08-18T01:37:50.173Z,97282.36
2018-08-18T01:42:44.669Z,97281.02
2018-08-18T01:47:39.133Z,97279.15
2018-08-18T01:52:36.029Z,97279.42
2018-08-18T01:57:30.500Z,97280.22
2018-08-18T02:02:28.963Z,97286.37
2018-08-18T02:07:29.311Z,97292.99
2018-08-18T02:12:24.431Z,97288.22
2018-08-18T02:17:33.066Z,97291.12
2018-08-18T02:22:28.171Z,97289.80
2018-08-18T02:27:22.692Z,97291.69
2018-08-18T02:32:40.233Z,97294.34
2018-08-18T02:37:34.812Z,97295.67
2018-08-18T02:42:29.337Z,97300.72
2018-08-18T02:47:24.111Z,97304.70
2018-08-18T02:52:28.595Z,97300.97
2018-08-18T02:57:30.588Z,97295.68
2018-08-18T03:02:25.160Z,97301.24
2018-08-18T03:07:19.699Z,97298.34
2018-08-18T03:12:14.225Z,97302.58
2018-08-18T03:17:10.103Z,97298.59
2018-08-18T03:22:04.767Z,97308.45
2018-08-18T03:26:59.824Z,97306.03
2018-08-18T03:31:54.753Z,97313.22
2018-08-18T03:36:51.285Z,97313.22
2018-08-18T03:41:46.495Z,97309.50
2018-08-18T03:46:41.133Z,97316.16
2018-08-18T03:51:40.740Z,97323.08
2018-08-18T03:56:35.245Z,97314.30
2018-08-18T04:01:58.867Z,97319.63
2018-08-18T04:06:54.476Z,97319.34
2018-08-18T04:11:49.109Z,97316.41
2018-08-18T04:16:48.716Z,97323.62
2018-08-18T04:21:43.196Z,97325.73
2018-08-18T04:26:37.688Z,97322.80
2018-08-18T04:31:34.176Z,97325.45
2018-08-18T04:36:28.620Z,97324.68
2018-08-18T04:41:23.484Z,97331.84
2018-08-18T04:46:18.081Z,97334.78
2018-08-18T04:51:12.545Z,97342.48
2018-08-18T04:56:07.328Z,97338.25
2018-08-18T05:01:01.848Z,97333.73
2018-08-18T05:05:56.353Z,97335.06
2018-08-18T05:10:50.829Z,97332.92
2018-08-18T05:15:45.341Z,97332.65
2018-08-18T05:20:39.817Z,97333.20
2018-08-18T05:25:38.360Z,97337.44
2018-08-18T05:30:32.857Z,97338.51
2018-08-18T05:35:27.365Z,97336.95
2018-08-18T05:40:21.892Z,97343.31
2018-08-18T05:45:31.004Z,97337.95
2018-08-18T05:50:27.244Z,97333.92
2018-08-18T05:55:21.780Z,97337.88
2018-08-18T06:00:23.572Z,97346.88
2018-08-18T06:05:18.200Z,97349.02
2018-08-18T06:10:12.708Z,97349.53
2018-08-18T06:15:07.330Z,97357.23
2018-08-18T06:20:02.079Z,97358.03
2018-08-18T06:24:56.682Z,97359.08
2018-08-18T06:29:52.349Z,97368.39
2018-08-18T06:34:46.986Z,97373.66
2018-08-18T06:39:56.653Z,97364.77
2018-08-18T06:44:51.133Z,97369.81
2018-08-18T06:49:45.577Z,97375.70
2018-08-18T06:54:40.136Z,97373.25
2018-08-18T06:59:34.593Z,97371.06
2018-08-18T07:04:29.073Z,97380.02
2018-08-18T07:09:23.623Z,97379.78
2018-08-18T07:14:18.136Z,97381.84
2018-08-18T07:19:12.659Z,97384.82
2018-08-18T07:24:07.415Z,97377.70
2018-08-18T07:29:02.176Z,97375.74
2018-08-18T07:33:56.717Z,97376.81
2018-08-18T07:38:51.468Z,97378.84
2018-08-18T07:43:45.973Z,97375.30
2018-08-18T07:48:40.655Z,97377.00
2018-08-18T07:53:35.204Z,97381.53
2018-08-18T07:58:29.746Z,97388.44
2018-08-18T08:03:24.228Z,97382.89
2018-08-18T08:08:18.716Z,97391.48
2018-08-18T08:13:14.880Z,97391.16
2018-08-18T08:18:12.351Z,97401.37
2018-08-18T08:23:06.860Z,97400.69
2018-08-18T08:28:01.546Z,97397.86
2018-08-18T08:32:56.112Z,97395.35
2018-08-18T08:37:53.021Z,97403.56
2018-08-18T08:42:47.593Z,97399.49
2018-08-18T08:47:42.449Z,97394.20
2018-08-18T08:52:47.099Z,97389.23
2018-08-18T08:57:41.573Z,97384.78
2018-08-18T09:02:36.149Z,97384.09
2018-08-18T09:07:30.658Z,97381.20
2018-08-18T09:12:25.225Z,97380.06
2018-08-18T09:17:19.734Z,97384.95
2018-08-18T09:22:14.306Z,97377.20
2018-08-18T09:27:08.856Z,97377.13
2018-08-18T09:32:03.476Z,97371.17
2018-08-18T09:36:58.013Z,97375.00
2018-08-18T09:41:52.550Z,97366.38
2018-08-18T09:46:47.035Z,97369.47
2018-08-18T09:51:41.520Z,97365.31
2018-08-18T09:56:36.065Z,97363.80
2018-08-18T10:01:30.597Z,97359.02
2018-08-18T10:06:25.163Z,97355.87
2018-08-18T10:11:19.625Z,97367.34
2018-08-18T10:16:14.196Z,97352.36
2018-08-18T10:21:08.710Z,97362.34
2018-08-18T10:26:03.330Z,97346.47
2018-08-18T10:30:57.890Z,97349.14
2018-08-18T10:35:52.391Z,97348.37
2018-08-18T10:40:46.872Z,97344.44
2018-08-18T10:45:41.388Z,97335.66
2018-08-18T10:51:24.242Z,97337.30
2018-08-18T10:56:18.746Z,97338.94
2018-08-18T11:01:13.216Z,97343.91
2018-08-18T11:06:07.938Z,97341.06
2018-08-18T11:11:02.465Z,97335.83
2018-08-18T11:15:57.003Z,97333.63
2018-08-18T11:20:51.484Z,97344.55
2018-08-18T11:25:49.645Z,97336.59
2018-08-18T11:30:44.272Z,97332.19
2018-08-18T11:35:39.288Z,97327.34
2018-08-18T11:40:33.821Z,97323.73
2018-08-18T11:45:29.401Z,97319.41
2018-08-18T11:50:25.457Z,97317.48
2018-08-18T11:55:20.965Z,97317.67
2018-08-18T12:00:16.034Z,97314.14
2018-08-18T12:05:10.545Z,97313.52
2018-08-18T12:10:05.056Z,97308.10
2018-08-18T12:14:59.602Z,97297.95
2018-08-18T12:19:58.473Z,97301.81
2018-08-18T12:24:57.360Z,97298.66
2018-08-18T12:29:51.978Z,97293.92
2018-08-18T12:34:46.525Z,97289.37
2018-08-18T12:39:41.115Z,97291.73
2018-08-18T12:44:35.752Z,97287.16
2018-08-18T12:49:30.988Z,97284.69
2018-08-18T12:54:25.502Z,97276.64
2018-08-18T12:59:20.041Z,97279.91
2018-08-18T13:04:17.946Z,97267.70
2018-08-18T13:09:14.105Z,97266.36
2018-08-18T13:14:08.765Z,97260.93
2018-08-18T13:19:03.294Z,97258.94
2018-08-18T13:24:00.166Z,97254.70
2018-08-18T13:28:54.901Z,97252.23
2018-08-18T13:33:49.361Z,97247.67
2018-08-18T13:38:43.849Z,97243.05
2018-08-18T13:43:46.391Z,97235.45
2018-08-18T13:48:53.119Z,97237.78
2018-08-18T13:53:52.190Z,97224.25
2018-08-18T13:58:48.823Z,97220.75
2018-08-18T14:03:43.352Z,97207.14
2018-08-18T14:08:38.039Z,97207.14
2018-08-18T14:13:32.521Z,97214.22
2018-08-18T14:18:27.020Z,97210.55
2018-08-18T14:23:22.350Z,97210.25
2018-08-18T14:28:16.998Z,97202.11
2018-08-18T14:33:11.574Z,97203.80
2018-08-18T14:38:06.085Z,97212.48
2018-08-18T14:43:00.677Z,97198.36
2018-08-18T14:47:55.249Z,97194.30
2018-08-18T14:52:49.861Z,97185.00
2018-08-18T14:57:49.721Z,97182.34
2018-08-18T15:02:44.216Z,97178.06
2018-08-18T15:07:43.885Z,97181.77
2018-08-18T15:12:38.492Z,97180.98
2018-08-18T15:17:33.176Z,97180.63
2018-08-18T15:22:27.965Z,97174.77
2018-08-18T15:27:23.180Z,97167.69
2018-08-18T15:32:17.752Z,97169.14
2018-08-18T15:37:12.204Z,97173.73
2018-08-18T15:42:06.725Z,97171.61
2018-08-18T15:47:01.221Z,97172.41
2018-08-18T15:51:56.036Z,97172.74
2018-08-18T15:56:50.560Z,97179.74
2018-08-18T16:01:45.068Z,97179.71
2018-08-18T16:06:39.572Z,97178.45
2018-08-18T16:11:34.260Z,97176.55
2018-08-18T16:16:28.728Z,97183.97
2018-08-18T16:21:24.564Z,97179.03
2018-08-18T16:26:19.069Z,97188.37
2018-08-18T16:31:13.810Z,97181.85
2018-08-18T16:36:08.440Z,97188.27
2018-08-18T16:41:03.060Z,97188.48
2018-08-18T16:46:03.010Z,97184.33
2018-08-18T16:50:57.544Z,97187.66
2018-08-18T16:55:52.089Z,97190.09
2018-08-18T17:01:00.062Z,97189.77
2018-08-18T17:05:54.580Z,97191.03
2018-08-18T17:10:49.097Z,97201.58
2018-08-18T17:15:43.610Z,97207.79
2018-08-18T17:20:39.632Z,97215.38
2018-08-18T17:25:38.191Z,97219.82
2018-08-18T17:30:32.664Z,97223.80
2018-08-18T17:35:27.353Z,97221.40
2018-08-18T17:40:21.864Z,97221.73
2018-08-18T17:45:16.381Z,97226.39
2018-08-18T17:50:10.921Z,97226.16
2018-08-18T17:55:18.430Z,97237.81
2018-08-18T18:00:22.995Z,97238.92
2018-08-18T18:05:21.038Z,97249.30
2018-08-18T18:10:17.306Z,97255.34
2018-08-18T18:15:28.530Z,97258.57
2018-08-18T18:20:23.120Z,97261.39
2018-08-18T18:25:20.745Z,97259.72
2018-08-18T18:30:15.293Z,97265.75
2018-08-18T18:35:09.833Z,97272.52
2018-08-18T18:40:08.510Z,97273.40
2018-08-18T18:45:03.027Z,97275.41
2018-08-18T18:49:57.544Z,97282.80
2018-08-18T18:54:52.261Z,97298.34
2018-08-18T18:59:51.785Z,97295.45
2018-08-18T19:04:46.341Z,97294.21
2018-08-18T19:09:40.962Z,97314.27
2018-08-18T19:14:35.501Z,97319.05
2018-08-18T19:19:30.001Z,97327.88
2018-08-18T19:24:25.458Z,97334.95
2018-08-18T19:29:20.897Z,97343.25
2018-08-18T19:34:15.839Z,97348.51
2018-08-18T19:39:10.325Z,97361.12
2018-08-18T19:44:04.952Z,97358.37
2018-08-18T19:48:59.485Z,97375.20
2018-08-18T19:53:53.946Z,97390.70
2018-08-18T19:58:48.463Z,97375.09
2018-08-18T20:03:43.021Z,97372.26
2018-08-18T20:08:37.649Z,97375.58
2018-08-18T20:13:32.988Z,97382.14
2018-08-18T20:18:27.464Z,97388.90
2018-08-18T20:23:22.484Z,97378.59
2018-08-18T20:28:17.053Z,97379.20
2018-08-18T20:33:11.553Z,97383.06
2018-08-18T20:38:06.128Z,97378.09
2018-08-18T20:43:00.653Z,97376.28
2018-08-18T20:47:55.183Z,97386.32
2018-08-18T20:52:49.712Z,97386.77
2018-08-18T20:57:44.197Z,97393.31
2018-08-18T21:02:38.744Z,97397.77
2018-08-18T21:07:35.156Z,97397.86
2018-08-18T21:12:33.776Z,97409.78
2018-08-18T21:17:28.964Z,97412.20
2018-08-18T21:22:27.561Z,97414.88
2018-08-18T21:27:22.053Z,97425.98
2018-08-18T21:32:16.561Z,97430.23
2018-08-18T21:37:11.065Z,97428.59
2018-08-18T21:42:06.553Z,97424.75
2018-08-18T21:47:01.079Z,97431.15
2018-08-18T21:51:57.277Z,97440.05
2018-08-18T21:56:51.768Z,97438.01
2018-08-18T22:01:46.334Z,97434.59
2018-08-18T22:06:40.856Z,97435.20
2018-08-18T22:11:35.348Z,97429.92
2018-08-18T22:16:29.887Z,97434.50
2018-08-18T22:21:31.253Z,97434.83
2018-08-18T22:26:25.805Z,97439.16
2018-08-18T22:31:20.352Z,97432.22
2018-08-18T22:36:14.966Z,97429.25
2018-08-18T22:41:09.521Z,97433.23
2018-08-18T22:46:04.049Z,97429.09
2018-08-18T22:50:58.617Z,97428.94
2018-08-18T22:55:53.149Z,97424.11
2018-08-18T23:00:51.420Z,97422.97
2018-08-18T23:05:45.945Z,97427.89
2018-08-18T23:10:40.496Z,97417.13
2018-08-18T23:15:34.964Z,97411.87
2018-08-18T23:20:29.550Z,97412.98
2018-08-18T23:25:25.665Z,97423.07
2018-08-18T23:30:24.277Z,97424.37
2018-08-18T23:35:18.829Z,97420.69
2018-08-18T23:40:13.437Z,97425.30
2018-08-18T23:45:07.975Z,97423.00
2018-08-18T23:50:02.500Z,97422.42
2018-08-18T23:54:57.084Z,97421.42
2018-08-18T23:59:51.622Z,97426.88
